Fairhope, AL

12:59 AM CDT on August 28, 2014 (GMT -0500)
CR-48 at CR-33 | Change Station
CLOSE
Current Station
Personal Weather Station
Location: Fairhope, AL
Elevation: 95 ft
Nearby Weather Stations

Elev 95 ft 30.52 °N, 87.82 °W | Updated 10 seconds ago

Clear
Clear
71.9 °F
Feels Like 71.9 °F
N
0.0
Wind Variable Wind from NW
Gusts 0.0 mph

Today
High -- | Low -- °F
--% Chance of Precip.
Yesterday
High -- | Low -- °F
Precip. -- in
6:25 AM 7:19 PM
Waxing Crescent, 6% visible
Pressure 30.01 in
Visibility 10.0 miles
Clouds Clear
Dew Point 70 °F
Humidity 93%
Rainfall 0.00 in
Snow Depth Not available.
UV 0 out of 12
Pollen 8.60 out of 12
Air Quality Not available.
Flu Activity Not available.
METAR KCQF 280535Z AUTO 00000KT 10SM CLR 22/22 A3001 RMK AO2

More Conditions Fewer Conditions

Pressure 30.01 in
Visibility 10.0 miles
Clouds Clear
Dew Point 70 °F
Humidity 93%
Rainfall 0.00 in
Snow Depth Not available.
UV 0 out of 12
Pollen 8.60 out of 12
Air Quality Not available.
Flu Activity Not available.
METAR KCQF 280535Z AUTO 00000KT 10SM CLR 22/22 A3001 RMK AO2

More Conditions Fewer Conditions

10-Day Weather Forecast

Almanac

Astronomy

Aug. 28, 2014 Rise Set
Actual Time 6:25 AM CDT 7:19 PM CDT
Civil Twilight 6:01 AM CDT 7:43 PM CDT
Nautical Twilight 5:32 AM CDT 8:12 PM CDT
Astronomical Twilight 5:02 AM CDT 8:42 PM CDT
Moon 9:03 AM CDT 8:59 PM CDT
Length of Visible Light 13h 42m
Length of Day
12h 53m
Tomorrow will be 1m 44s shorter.
Waxing Crescent, 6% of the Moon is Illuminated
Today
Waxing Crescent
Sep 2
First Quarter
Sep 8
Full
Sep 15
Last Quarter
Sep 24
New

Today's Extremes

State Highs State Lows

Community

WunderPhotos

Upload Photos

1,747,909 photos uploaded!

Nearby

Snow Depth

Station Depth Elevation
No new snow has been reported.

Earthquake Activity

City Distance Mag. Time & Date
No recent earthquake activity has been reported nearby.
Minimum magnitude displayed is 2.5.

Coastal Water Temperatures

Place Temperature
Mobile State Docks, AL 86.0 °F
Coast Guard Sector Mobile, AL 86.0 °F

Nearby Weather Stations